Time;durP1;ratioP1;P1;durP2;ratioP2;P2;SDS_P1;SDS_P2;PMS_P1;PMS_P2;Temp;Humidity;BMP_temperature;BMP_pressure;BME280_temperature;BME280_humidity;BME280_pressure;Samples;Min_cycle;Max_cycle;Signal;HPM_P1;HPM_P2
2021/11/08 00:00:28;;;;;;;10.43;6.20;;;;;;;9.31;69.54;97022.38;5086776;28;20421;-69
2021/11/08 00:02:54;;;;;;;16.17;7.07;;;;;;;9.38;69.70;97024.25;5090452;28;20615;-71
2021/11/08 00:05:19;;;;;;;13.30;6.60;;;;;;;9.23;69.68;97023.09;5089434;28;20452;-70
2021/11/08 00:07:49;;;;;;;14.63;6.67;;;;;;;9.28;69.96;97020.88;5082611;28;20629;-72
2021/11/08 00:10:15;;;;;;;11.47;6.40;;;;;;;9.30;69.76;97018.94;5076805;28;20177;-69
2021/11/08 00:12:40;;;;;;;21.27;7.10;;;;;;;9.43;69.19;97017.75;5093959;28;20439;-70
2021/11/08 00:15:09;;;;;;;12.00;6.90;;;;;;;9.11;70.57;97019.06;5085222;28;20434;-72
2021/11/08 00:20:10;;;;;;;18.80;7.60;;;;;;;8.79;72.09;97009.91;5089626;28;20456;-69
2021/11/08 00:22:39;;;;;;;14.30;7.60;;;;;;;8.90;71.65;97007.09;5079949;28;20185;-72
2021/11/08 00:25:05;;;;;;;14.70;7.40;;;;;;;9.02;71.56;97005.91;5091925;28;20435;-70
2021/11/08 00:27:30;;;;;;;13.33;7.40;;;;;;;8.72;72.42;97007.03;5073854;28;20461;-71
2021/11/08 00:29:57;;;;;;;12.63;7.50;;;;;;;8.70;73.02;97001.13;5072149;28;20422;-68
2021/11/08 00:32:22;;;;;;;19.70;8.20;;;;;;;8.72;72.84;97015.69;5095583;28;20215;-72
2021/11/08 00:34:48;;;;;;;16.80;8.70;;;;;;;8.67;72.83;97015.31;5096353;28;20408;-71
2021/11/08 00:37:14;;;;;;;11.47;7.17;;;;;;;8.84;72.03;97007.66;5096436;28;20223;-71
2021/11/08 00:39:39;;;;;;;13.03;7.80;;;;;;;8.41;73.07;97004.66;5089569;28;20198;-72
2021/11/08 00:42:05;;;;;;;13.70;7.23;;;;;;;8.81;72.11;97007.97;5098310;28;20186;-70
2021/11/08 00:44:31;;;;;;;18.50;7.23;;;;;;;8.82;71.45;97007.81;5089375;28;20261;-70
2021/11/08 00:46:57;;;;;;;21.27;7.10;;;;;;;8.91;71.07;96999.09;5076945;28;20585;-69
2021/11/08 00:49:24;;;;;;;13.07;7.43;;;;;;;8.96;70.12;97001.25;5093335;28;20286;-69
2021/11/08 00:51:49;;;;;;;18.60;6.93;;;;;;;8.76;71.19;97004.00;5094805;28;20177;-72
2021/11/08 00:54:16;;;;;;;19.07;6.43;;;;;;;8.46;71.61;97015.50;5074736;28;20427;-70
2021/11/08 00:56:44;;;;;;;12.07;6.57;;;;;;;8.48;72.10;97031.06;5078838;28;20175;-71
2021/11/08 00:59:13;;;;;;;14.00;6.50;;;;;;;8.67;71.10;97023.16;5077684;28;20801;-73
2021/11/08 01:01:47;;;;;;;17.17;6.70;;;;;;;8.53;71.29;97027.06;5087538;28;20416;-70
2021/11/08 01:04:18;;;;;;;13.70;6.37;;;;;;;8.83;70.33;97026.91;5088293;28;20461;-73
2021/11/08 01:06:44;;;;;;;11.33;6.87;;;;;;;9.06;69.72;97032.56;5093743;28;20427;-70
2021/11/08 01:09:09;;;;;;;15.20;6.70;;;;;;;8.88;70.05;97024.69;5091053;28;20527;-70
2021/11/08 01:11:35;;;;;;;13.23;6.73;;;;;;;8.84;70.43;97023.34;5092385;28;20419;-70
2021/11/08 01:14:00;;;;;;;19.63;8.37;;;;;;;8.92;70.01;97036.50;5091680;28;20186;-70
2021/11/08 01:16:26;;;;;;;12.23;6.50;;;;;;;8.63;71.38;97032.25;5080354;28;20178;-70
2021/11/08 01:18:54;;;;;;;10.97;6.20;;;;;;;8.73;70.52;97027.78;5084664;28;20205;-70
2021/11/08 01:21:20;;;;;;;12.00;6.97;;;;;;;8.75;70.56;97032.91;5087345;28;20174;-69
2021/11/08 01:23:46;;;;;;;14.70;7.43;;;;;;;8.74;70.55;97039.88;5081081;28;20443;-69
2021/11/08 01:26:13;;;;;;;18.20;8.80;;;;;;;8.42;71.90;97040.25;5091333;28;20927;-71
2021/11/08 01:28:42;;;;;;;14.40;7.70;;;;;;;8.40;72.22;97035.19;5077536;28;20209;-71
2021/11/08 01:31:09;;;;;;;12.03;7.40;;;;;;;8.28;72.55;97028.50;5089908;28;20908;-68
2021/11/08 01:33:36;;;;;;;14.83;8.63;;;;;;;8.34;73.01;97032.31;5091291;28;20473;-71
2021/11/08 01:38:36;;;;;;;17.83;8.07;;;;;;;8.46;71.56;97031.19;5090120;28;20815;-70
2021/11/08 01:41:02;;;;;;;13.80;8.53;;;;;;;8.23;72.73;97026.31;5042052;28;20420;-69
2021/11/08 01:43:28;;;;;;;20.90;8.40;;;;;;;8.52;71.78;97030.63;5091170;28;20519;-70
2021/11/08 01:45:53;;;;;;;13.30;7.90;;;;;;;8.57;71.00;97030.19;5090915;28;20186;-69
2021/11/08 01:48:19;;;;;;;19.10;8.77;;;;;;;8.42;71.28;97028.03;5090808;28;20633;-69
2021/11/08 01:50:45;;;;;;;15.73;8.23;;;;;;;8.14;72.40;97022.75;5091312;28;20181;-69
2021/11/08 01:53:11;;;;;;;20.27;7.90;;;;;;;8.36;71.57;97030.41;5079463;28;20181;-73
2021/11/08 01:55:37;;;;;;;15.23;7.93;;;;;;;8.30;71.25;97029.19;5087554;28;20196;-70
2021/11/08 01:58:03;;;;;;;21.53;9.73;;;;;;;8.46;71.14;97044.25;5074253;28;20540;-71
2021/11/08 02:00:29;;;;;;;18.20;8.73;;;;;;;8.63;70.45;97047.13;5090989;28;20456;-72
2021/11/08 02:02:55;;;;;;;19.70;8.20;;;;;;;8.73;70.08;97048.69;5091073;28;20186;-70
2021/11/08 02:05:21;;;;;;;18.50;8.27;;;;;;;8.72;69.98;97054.06;5080108;28;20412;-69
2021/11/08 02:07:48;;;;;;;18.30;7.90;;;;;;;8.73;69.68;97061.75;5072495;28;21287;-70
2021/11/08 02:10:14;;;;;;;16.20;7.70;;;;;;;8.75;69.28;97057.22;5091099;28;20665;-70
2021/11/08 02:12:41;;;;;;;12.10;6.43;;;;;;;8.71;68.88;97048.00;5074228;28;20469;-71
2021/11/08 02:15:10;;;;;;;8.53;6.80;;;;;;;8.64;69.10;97046.94;5087320;28;20424;-69
2021/11/08 02:17:37;;;;;;;16.90;7.80;;;;;;;8.60;68.75;97043.81;5082279;28;20448;-69
2021/11/08 02:20:32;;;;;;;16.90;7.53;;;;;;;8.58;68.79;97037.06;5094070;28;20971;-69
2021/11/08 02:23:00;;;;;;;12.47;6.53;;;;;;;8.54;69.03;97039.16;5077618;28;20473;-71
2021/11/08 02:25:28;;;;;;;11.17;6.60;;;;;;;8.49;68.73;97043.16;5058054;28;20430;-70
2021/11/08 02:27:54;;;;;;;8.73;6.00;;;;;;;8.44;68.88;97039.16;5091114;28;20911;-72
2021/11/08 02:30:23;;;;;;;11.77;7.00;;;;;;;8.41;68.67;97038.63;5090671;28;20412;-70
2021/11/08 02:32:51;;;;;;;15.63;6.80;;;;;;;8.42;68.66;97048.94;5089577;28;20428;-73
2021/11/08 02:35:17;;;;;;;19.10;6.70;;;;;;;8.38;69.00;97047.56;5091314;28;20518;-71
2021/11/08 02:37:43;;;;;;;14.10;6.70;;;;;;;8.35;69.35;97044.41;5091180;28;20448;-72
2021/11/08 02:40:17;;;;;;;12.70;6.60;;;;;;;8.35;68.70;97040.00;5085089;28;20259;-73
2021/11/08 02:42:43;;;;;;;10.03;6.30;;;;;;;8.32;68.94;97050.72;5082940;28;20433;-72
2021/11/08 02:45:09;;;;;;;12.93;6.90;;;;;;;8.28;68.55;97041.56;5090991;28;20436;-68
2021/11/08 02:47:35;;;;;;;14.17;6.77;;;;;;;8.24;68.78;97050.63;5090639;28;20217;-69
2021/11/08 02:50:02;;;;;;;12.17;6.20;;;;;;;8.22;68.52;97055.16;5089671;28;20532;-68
2021/11/08 02:52:28;;;;;;;10.77;7.10;;;;;;;8.13;68.61;97057.66;5078160;28;20230;-70
2021/11/08 02:54:54;;;;;;;22.13;7.27;;;;;;;7.97;69.29;97057.41;5085393;28;20518;-70
2021/11/08 02:57:23;;;;;;;13.50;6.70;;;;;;;8.07;69.24;97066.03;5090562;28;20232;-73
2021/11/08 02:59:50;;;;;;;14.07;6.80;;;;;;;8.09;68.76;97058.88;5081350;28;20592;-71
2021/11/08 03:02:16;;;;;;;12.33;6.80;;;;;;;8.03;69.07;97064.69;5093414;28;20817;-70
2021/11/08 03:04:45;;;;;;;15.93;7.70;;;;;;;7.98;69.48;97066.88;5089832;28;20488;-70
2021/11/08 03:07:11;;;;;;;14.90;7.10;;;;;;;7.94;69.34;97061.13;5091950;28;20430;-71
2021/11/08 03:09:50;;;;;;;12.33;7.47;;;;;;;7.86;69.38;97068.00;5092476;28;20999;-70
2021/11/08 03:12:22;;;;;;;10.70;6.80;;;;;;;7.63;69.11;97060.44;5076166;28;20438;-72
2021/11/08 03:17:22;;;;;;;16.90;7.90;;;;;;;7.35;70.22;97057.69;5092684;28;20482;-70
2021/11/08 03:19:48;;;;;;;26.10;8.50;;;;;;;7.28;70.96;97072.22;5092807;28;21103;-69
2021/11/08 03:22:16;;;;;;;13.13;7.70;;;;;;;7.01;71.60;97068.47;5069486;28;20412;-69
2021/11/08 03:24:55;;;;;;;19.93;8.37;;;;;;;7.02;71.52;97063.09;5084417;28;20219;-69
2021/11/08 03:27:48;;;;;;;12.00;7.27;;;;;;;6.87;71.88;97067.88;5091564;28;20436;-70
2021/11/08 03:30:20;;;;;;;10.93;8.07;;;;;;;6.81;72.66;97065.78;5092053;28;21144;-71
2021/11/08 03:32:51;;;;;;;16.73;7.50;;;;;;;7.02;71.43;97063.09;5092963;28;20916;-70
2021/11/08 03:35:21;;;;;;;21.83;8.20;;;;;;;6.89;71.20;97065.97;5092880;28;20439;-69
2021/11/08 03:37:48;;;;;;;11.40;7.83;;;;;;;6.83;71.08;97066.47;5092548;28;20444;-70
2021/11/08 03:40:22;;;;;;;17.80;8.20;;;;;;;6.88;71.13;97064.31;5092747;28;20505;-71
2021/11/08 03:42:49;;;;;;;13.83;6.70;;;;;;;6.85;70.92;97071.56;5090745;28;20416;-71
2021/11/08 03:45:15;;;;;;;14.53;7.20;;;;;;;6.76;71.36;97073.19;5092607;28;20416;-71
2021/11/08 03:47:42;;;;;;;19.37;7.33;;;;;;;6.31;73.18;97063.94;5090890;28;20811;-69
2021/11/08 03:50:09;;;;;;;14.10;7.90;;;;;;;6.73;71.58;97069.06;5092071;28;20412;-72
2021/11/08 03:52:37;;;;;;;18.63;7.80;;;;;;;6.73;71.27;97073.44;5090642;28;20475;-72
2021/11/08 03:55:05;;;;;;;15.80;8.00;;;;;;;6.81;71.43;97080.59;5091322;28;20420;-71
2021/11/08 03:57:30;;;;;;;12.70;6.97;;;;;;;6.94;70.81;97080.34;5081272;28;20535;-71
2021/11/08 03:59:56;;;;;;;14.97;6.70;;;;;;;6.81;71.18;97084.00;5093490;28;20539;-72
2021/11/08 04:02:21;;;;;;;20.80;8.03;;;;;;;6.90;71.10;97085.84;5074803;28;20166;-70
2021/11/08 04:04:48;;;;;;;11.90;6.80;;;;;;;7.00;70.21;97087.66;5088905;28;20182;-71
2021/11/08 04:07:14;;;;;;;16.83;7.10;;;;;;;6.99;69.99;97083.41;5075988;28;20250;-70
2021/11/08 04:09:40;;;;;;;17.43;7.20;;;;;;;6.94;70.33;97091.63;5082373;28;20492;-70
2021/11/08 04:12:07;;;;;;;17.20;7.40;;;;;;;7.06;69.89;97087.13;5083246;28;20467;-70
2021/11/08 04:14:33;;;;;;;12.37;7.17;;;;;;;7.09;69.93;97084.25;5092607;28;20515;-70
2021/11/08 04:16:59;;;;;;;17.13;6.90;;;;;;;6.91;70.01;97086.66;5089046;28;21083;-70
2021/11/08 04:19:29;;;;;;;11.20;7.00;;;;;;;6.98;69.63;97086.97;5078325;28;20467;-70
2021/11/08 04:21:58;;;;;;;10.70;6.67;;;;;;;7.06;69.74;97098.38;5073237;28;20177;-71
2021/11/08 04:24:24;;;;;;;18.53;7.33;;;;;;;7.05;69.02;97091.50;5083202;28;20408;-71
2021/11/08 04:26:49;;;;;;;16.03;7.13;;;;;;;7.05;69.16;97098.53;5090989;28;20423;-70
2021/11/08 04:29:15;;;;;;;12.60;7.03;;;;;;;7.04;68.77;97092.47;5088823;28;20428;-70
2021/11/08 04:31:41;;;;;;;13.67;6.37;;;;;;;6.98;68.50;97094.78;5065689;28;20193;-70
2021/11/08 04:42:03;;;;;;;13.03;6.60;;;;;;;6.67;69.43;97105.22;5075461;28;20418;-71
2021/11/08 04:44:46;;;;;;;13.80;6.10;;;;;;;6.80;68.81;97100.63;5084239;28;20420;-72
2021/11/08 05:30:08;;;;;;;17.97;6.73;;;;;;;6.40;69.22;97119.63;5093777;28;20514;-70
2021/11/08 05:32:37;;;;;;;11.53;7.20;;;;;;;6.40;69.87;97124.81;5063925;28;20412;-70
2021/11/08 05:35:05;;;;;;;10.97;6.60;;;;;;;6.50;69.55;97127.47;5070366;28;20417;-70
2021/11/08 05:37:31;;;;;;;17.93;7.13;;;;;;;6.57;69.09;97126.00;5078598;28;20501;-70
2021/11/08 05:40:04;;;;;;;13.70;6.80;;;;;;;6.55;69.05;97123.50;5077054;28;20888;-71
2021/11/08 05:42:29;;;;;;;17.43;7.00;;;;;;;6.54;68.87;97127.09;5070020;28;20182;-72
2021/11/08 05:44:55;;;;;;;16.70;8.43;;;;;;;6.51;68.71;97142.13;5089348;28;20439;-70
2021/11/08 05:47:21;;;;;;;8.57;6.37;;;;;;;6.48;68.89;97138.00;5070712;28;20205;-68
2021/11/08 05:49:47;;;;;;;13.37;7.00;;;;;;;6.53;68.69;97140.22;5083058;28;20266;-70
2021/11/08 05:52:14;;;;;;;14.10;6.50;;;;;;;6.54;68.77;97145.31;5091169;28;20170;-71
2021/11/08 05:54:40;;;;;;;15.27;6.60;;;;;;;6.48;68.71;97132.81;5073504;28;20424;-69
2021/11/08 06:51:04;;;;;;;12.13;7.40;;;;;;;6.77;69.17;97184.25;5075127;28;20427;-72
2021/11/08 06:53:32;;;;;;;19.47;7.80;;;;;;;6.73;68.76;97172.41;5090031;28;20423;-70
2021/11/08 06:55:59;;;;;;;20.73;7.70;;;;;;;6.35;69.07;97173.81;5095518;28;20181;-72
2021/11/08 06:58:26;;;;;;;20.50;8.10;;;;;;;6.38;70.05;97184.00;5094409;28;20456;-69
2021/11/08 07:00:53;;;;;;;20.60;7.97;;;;;;;6.29;70.49;97170.78;5085236;28;20482;-68
2021/11/08 07:03:19;;;;;;;12.93;7.10;;;;;;;6.53;70.43;97177.53;5078358;28;20412;-70
2021/11/08 07:05:45;;;;;;;16.00;6.87;;;;;;;6.69;70.27;97181.44;5082059;28;20425;-70
2021/11/08 07:08:11;;;;;;;11.70;7.97;;;;;;;6.87;69.77;97187.72;5085395;28;20239;-70
2021/11/08 07:10:37;;;;;;;25.23;8.60;;;;;;;6.98;69.40;97183.38;5086821;28;20478;-73
2021/11/08 07:13:03;;;;;;;15.00;7.13;;;;;;;7.13;69.04;97189.91;5076041;28;20796;-70
2021/11/08 07:15:29;;;;;;;16.87;7.27;;;;;;;7.20;68.71;97188.41;5088149;28;20507;-71
2021/11/08 07:17:56;;;;;;;12.27;7.40;;;;;;;7.22;68.66;97191.72;5083324;28;20522;-70
2021/11/08 07:20:23;;;;;;;17.13;7.33;;;;;;;7.30;68.33;97195.47;5094969;28;20198;-69
2021/11/08 07:22:49;;;;;;;12.17;7.33;;;;;;;7.34;68.54;97196.81;5079067;28;20450;-73
2021/11/08 07:25:15;;;;;;;12.27;7.50;;;;;;;7.40;68.05;97195.47;5094739;28;20404;-69
2021/11/08 07:27:41;;;;;;;18.27;8.60;;;;;;;7.45;68.62;97201.94;5076669;28;20496;-72
2021/11/08 07:30:08;;;;;;;15.73;7.40;;;;;;;7.57;68.32;97202.66;5076028;28;20174;-70
2021/11/08 07:32:33;;;;;;;18.00;8.80;;;;;;;7.60;67.81;97197.19;5077021;28;20416;-71
2021/11/08 07:34:59;;;;;;;17.63;7.87;;;;;;;7.64;68.15;97198.56;5077891;28;20945;-70
2021/11/08 07:37:25;;;;;;;14.87;8.33;;;;;;;7.72;67.54;97200.50;5098369;28;20214;-70
2021/11/08 07:39:51;;;;;;;24.60;13.40;;;;;;;7.76;67.58;97201.03;5069934;28;20196;-71
2021/11/08 07:42:17;;;;;;;37.27;16.17;;;;;;;7.86;67.56;97207.13;5091723;28;20522;-71
2021/11/08 07:44:43;;;;;;;40.37;20.13;;;;;;;7.94;67.82;97207.25;5108013;28;20423;-71
2021/11/08 07:47:09;;;;;;;36.03;14.07;;;;;;;8.03;67.22;97205.63;5105992;28;20431;-74
2021/11/08 07:49:34;;;;;;;24.60;9.03;;;;;;;8.10;67.61;97204.13;5095855;28;20484;-71
2021/11/08 07:52:00;;;;;;;21.20;7.60;;;;;;;8.22;67.82;97202.22;5086965;28;20182;-70
2021/11/08 07:54:30;;;;;;;19.27;8.00;;;;;;;8.35;67.26;97211.56;5092906;28;20224;-70
2021/11/08 07:56:56;;;;;;;15.13;7.90;;;;;;;8.48;66.98;97211.28;5091610;28;20564;-71
2021/11/08 07:59:21;;;;;;;20.33;7.70;;;;;;;8.57;67.42;97206.06;5092549;28;20463;-70
2021/11/08 08:01:48;;;;;;;18.03;7.80;;;;;;;8.70;66.92;97216.19;5076863;28;20510;-71
2021/11/08 08:04:14;;;;;;;23.23;8.30;;;;;;;8.82;66.57;97209.03;5071346;28;20231;-69
2021/11/08 08:06:40;;;;;;;21.43;8.90;;;;;;;9.01;65.97;97210.78;5084758;28;20419;-72
2021/11/08 08:09:05;;;;;;;20.63;8.10;;;;;;;9.07;65.60;97207.59;5080228;28;20440;-71
2021/11/08 08:11:31;;;;;;;38.57;9.10;;;;;;;9.23;65.69;97208.78;5086128;28;20221;-70
2021/11/08 08:13:57;;;;;;;22.00;6.70;;;;;;;9.37;65.58;97203.06;5082864;28;20194;-68
2021/11/08 08:16:22;;;;;;;15.93;7.67;;;;;;;9.55;65.06;97209.31;5087891;28;20504;-69
2021/11/08 08:18:50;;;;;;;12.03;6.00;;;;;;;9.65;64.33;97204.84;5072496;28;20559;-70
2021/11/08 08:21:16;;;;;;;15.23;5.57;;;;;;;9.73;64.45;97201.50;5072654;28;20173;-69
2021/11/08 08:23:42;;;;;;;21.73;5.70;;;;;;;9.78;63.26;97200.09;5082580;28;20420;-70
2021/11/08 08:26:09;;;;;;;12.90;5.40;;;;;;;9.92;63.18;97201.41;5086843;28;20432;-70
2021/11/08 08:28:34;;;;;;;15.13;5.27;;;;;;;10.01;62.45;97198.84;5080489;28;20451;-70
2021/11/08 08:31:00;;;;;;;17.03;5.90;;;;;;;10.13;62.57;97198.50;5091780;28;20408;-72
2021/11/08 08:33:27;;;;;;;14.90;5.70;;;;;;;10.28;62.21;97200.56;5080615;28;20176;-70
2021/11/08 08:35:53;;;;;;;14.67;5.20;;;;;;;10.30;61.48;97199.47;5085008;28;20515;-71
2021/11/08 08:38:19;;;;;;;13.20;5.00;;;;;;;10.43;61.43;97199.09;5092080;28;20933;-71
2021/11/08 08:40:47;;;;;;;14.83;4.73;;;;;;;10.09;60.86;97202.38;5092255;28;20217;-71
2021/11/08 08:43:14;;;;;;;13.43;4.50;;;;;;;10.45;60.30;97201.59;5092238;28;20423;-71
2021/11/08 08:45:39;;;;;;;16.97;4.70;;;;;;;10.48;59.18;97203.06;5092878;28;20427;-70
2021/11/08 08:48:06;;;;;;;24.43;4.70;;;;;;;10.66;59.31;97200.41;5092074;28;21016;-72
2021/11/08 08:50:32;;;;;;;18.97;4.77;;;;;;;10.88;59.24;97197.28;5087669;28;20247;-70
2021/11/08 08:52:58;;;;;;;11.53;5.07;;;;;;;11.03;58.72;97204.59;5073415;28;20424;-71
2021/11/08 08:55:24;;;;;;;23.13;5.07;;;;;;;11.03;57.97;97210.63;5087348;28;20982;-73
2021/11/08 08:57:50;;;;;;;14.80;5.20;;;;;;;11.25;57.28;97205.03;5086699;28;20213;-70
2021/11/08 09:00:18;;;;;;;23.27;4.23;;;;;;;11.28;56.56;97205.53;5071663;28;20202;-70
2021/11/08 09:02:44;;;;;;;14.00;3.90;;;;;;;11.29;56.88;97199.31;5081307;28;20475;-71
2021/11/08 09:05:10;;;;;;;14.97;5.17;;;;;;;11.21;57.01;97213.19;5082852;28;20420;-72
2021/11/08 09:07:37;;;;;;;12.53;4.63;;;;;;;11.32;56.90;97200.81;5073735;28;20652;-69
2021/11/08 09:10:04;;;;;;;22.23;6.17;;;;;;;11.43;56.95;97199.69;5092044;28;20416;-70
2021/11/08 09:12:30;;;;;;;16.03;4.27;;;;;;;11.55;56.91;97197.63;5074263;28;20424;-70
2021/11/08 09:14:55;;;;;;;16.17;4.80;;;;;;;11.68;56.04;97193.56;5075610;28;20423;-68
2021/11/08 09:17:21;;;;;;;12.63;5.00;;;;;;;11.65;56.41;97196.53;5087656;28;20459;-72
2021/11/08 09:19:47;;;;;;;16.80;5.17;;;;;;;11.56;58.12;97197.44;5090184;28;20202;-71
2021/11/08 09:22:13;;;;;;;18.67;5.77;;;;;;;11.65;56.51;97195.69;5072360;28;20184;-70
2021/11/08 09:24:40;;;;;;;26.80;6.70;;;;;;;11.91;55.71;97194.75;5099239;28;20277;-71
2021/11/08 09:27:06;;;;;;;13.40;4.93;;;;;;;11.90;55.73;97198.38;5100820;28;20479;-76
2021/11/08 09:29:32;;;;;;;12.80;5.30;;;;;;;11.46;56.51;97210.72;5100708;28;20478;-71
2021/11/08 09:31:57;;;;;;;15.93;4.70;;;;;;;11.51;57.31;97205.00;5085384;28;20419;-71
2021/11/08 09:34:23;;;;;;;16.07;5.50;;;;;;;11.47;56.70;97203.66;5100285;28;20178;-69
2021/11/08 09:36:51;;;;;;;18.40;5.50;;;;;;;11.39;57.02;97204.44;5097965;28;20200;-71
2021/11/08 09:39:24;;;;;;;17.13;6.30;;;;;;;11.47;57.09;97208.91;5079797;28;20452;-70
2021/11/08 09:41:54;;;;;;;24.37;5.23;;;;;;;11.40;57.02;97215.78;5096805;28;20447;-70
2021/11/08 09:44:20;;;;;;;13.40;4.60;;;;;;;11.40;56.82;97219.22;5080766;28;20430;-71
2021/11/08 09:46:46;;;;;;;19.73;5.07;;;;;;;11.53;56.73;97216.97;5099651;28;20518;-70
2021/11/08 09:49:11;;;;;;;11.33;4.90;;;;;;;11.76;56.33;97208.50;5094835;28;21034;-70
2021/11/08 09:51:41;;;;;;;18.97;4.70;;;;;;;11.95;56.29;97219.72;5086772;28;20208;-70
2021/11/08 09:54:07;;;;;;;19.43;5.20;;;;;;;11.95;55.72;97224.97;5094573;28;20248;-71
2021/11/08 09:56:33;;;;;;;15.30;4.83;;;;;;;11.88;56.33;97223.97;5089173;28;20423;-69
2021/11/08 09:59:00;;;;;;;30.40;5.20;;;;;;;12.01;56.33;97226.97;5090649;28;20463;-72
2021/11/08 10:01:27;;;;;;;17.50;4.57;;;;;;;12.36;54.06;97227.69;5095463;28;20258;-69
2021/11/08 10:03:55;;;;;;;20.13;4.57;;;;;;;12.51;52.74;97229.66;5091163;28;20477;-70
2021/11/08 10:06:21;;;;;;;17.20;4.60;;;;;;;12.56;53.42;97227.38;5093455;28;20424;-69
2021/11/08 10:08:48;;;;;;;20.07;5.20;;;;;;;12.78;51.94;97230.34;5077943;28;21135;-69
2021/11/08 10:11:16;;;;;;;12.43;3.87;;;;;;;12.21;54.84;97234.59;5095135;28;20411;-70
2021/11/08 10:13:42;;;;;;;11.20;4.10;;;;;;;9.99;60.89;97240.91;5094875;28;20451;-70
2021/11/08 10:16:12;;;;;;;17.83;4.73;;;;;;;10.43;60.31;97240.22;5077792;28;20494;-70
2021/11/08 10:18:40;;;;;;;10.47;4.07;;;;;;;9.88;61.55;97236.69;5084576;28;20455;-73
2021/11/08 10:21:12;;;;;;;14.60;5.20;;;;;;;9.93;61.36;97234.47;5099118;28;20424;-73
2021/11/08 10:23:40;;;;;;;23.50;5.97;;;;;;;9.57;62.96;97238.78;5080641;28;20421;-72
2021/11/08 10:26:23;;;;;;;12.93;4.90;;;;;;;10.00;61.22;97237.31;5095048;28;20477;-73
2021/11/08 10:28:57;;;;;;;17.77;6.33;;;;;;;9.94;62.01;97233.50;5094439;28;20467;-74
2021/11/08 10:31:28;;;;;;;18.70;6.13;;;;;;;9.93;62.25;97236.25;5071006;28;20425;-71
2021/11/08 10:33:55;;;;;;;32.10;8.23;;;;;;;9.71;62.29;97240.09;5087948;28;20544;-68
2021/11/08 10:36:21;;;;;;;16.13;6.80;;;;;;;9.74;60.87;97231.94;5086598;28;20542;-71
2021/11/08 10:38:49;;;;;;;14.10;6.20;;;;;;;10.76;59.47;97222.09;5098901;28;20593;-72
2021/11/08 10:41:19;;;;;;;12.57;7.03;;;;;;;11.00;57.34;97225.88;5095519;28;20542;-71
2021/11/08 10:43:46;;;;;;;18.60;7.80;;;;;;;11.32;56.00;97225.22;5082388;28;20440;-70
2021/11/08 10:46:25;;;;;;;15.90;6.00;;;;;;;11.39;55.68;97228.06;5079789;28;20609;-71
2021/11/08 10:48:54;;;;;;;22.03;6.63;;;;;;;11.81;54.88;97227.25;5094132;28;20451;-71
2021/11/08 10:51:22;;;;;;;19.00;5.97;;;;;;;11.98;54.88;97237.81;5071670;28;20462;-72
2021/11/08 10:53:50;;;;;;;17.80;5.27;;;;;;;11.71;55.02;97238.84;5086067;28;20922;-71
2021/11/08 10:56:23;;;;;;;14.27;5.47;;;;;;;11.19;55.67;97244.03;5083516;28;20418;-69
2021/11/08 10:58:50;;;;;;;21.00;5.63;;;;;;;10.73;57.35;97248.63;5076615;28;20465;-71
2021/11/08 11:01:21;;;;;;;17.23;5.80;;;;;;;10.97;57.03;97245.38;5091438;28;20452;-70
2021/11/08 11:03:49;;;;;;;26.00;5.60;;;;;;;11.03;56.57;97246.56;5090345;28;20520;-71
2021/11/08 11:06:14;;;;;;;14.43;5.43;;;;;;;11.38;55.36;97244.78;5084533;28;20428;-71
2021/11/08 11:08:50;;;;;;;18.67;5.03;;;;;;;11.67;55.13;97240.97;5093413;28;20462;-71
2021/11/08 11:11:20;;;;;;;11.67;5.00;;;;;;;11.56;55.11;97236.81;5092157;28;20177;-70
2021/11/08 11:13:52;;;;;;;18.57;4.80;;;;;;;11.57;54.47;97242.91;5093288;28;20424;-70
2021/11/08 11:16:33;;;;;;;12.87;6.10;;;;;;;11.04;57.08;97248.19;5093057;28;20428;-71
2021/11/08 11:19:05;;;;;;;13.70;4.87;;;;;;;11.06;56.35;97256.75;5091676;28;20946;-72
2021/11/08 11:21:31;;;;;;;14.03;5.40;;;;;;;11.15;55.43;97249.75;5084402;28;20731;-70
2021/11/08 11:24:02;;;;;;;19.03;5.73;;;;;;;11.23;56.07;97247.16;5088667;28;20458;-71
2021/11/08 11:26:31;;;;;;;17.97;5.73;;;;;;;11.19;56.00;97248.44;5093371;28;20319;-70
2021/11/08 11:28:57;;;;;;;13.83;5.63;;;;;;;11.36;55.69;97242.31;5092541;28;20451;-71
2021/11/08 11:31:26;;;;;;;18.90;6.70;;;;;;;10.95;56.92;97246.50;5093350;28;20416;-70
2021/11/08 11:33:54;;;;;;;17.53;6.10;;;;;;;11.11;56.64;97240.53;5092528;28;20428;-71
2021/11/08 11:36:22;;;;;;;15.43;5.50;;;;;;;11.69;55.03;97233.78;5077038;28;20524;-70
2021/11/08 11:39:03;;;;;;;19.00;6.20;;;;;;;12.10;53.39;97236.53;5089994;28;20456;-72
2021/11/08 11:41:35;;;;;;;13.50;5.70;;;;;;;12.34;52.68;97234.94;5081564;28;20493;-71
2021/11/08 11:44:04;;;;;;;11.03;5.47;;;;;;;11.06;54.33;97249.69;5088313;28;20446;-70
2021/11/08 11:46:36;;;;;;;11.80;5.07;;;;;;;11.49;53.50;97246.31;5091583;28;20423;-70
2021/11/08 11:49:03;;;;;;;12.93;5.10;;;;;;;11.18;53.72;97238.94;5092465;28;20429;-73
2021/11/08 11:51:32;;;;;;;13.20;4.67;;;;;;;11.48;53.62;97240.22;5084840;28;20429;-70
2021/11/08 11:53:59;;;;;;;15.07;5.10;;;;;;;10.87;54.53;97236.78;5088082;28;20570;-69
2021/11/08 11:56:27;;;;;;;14.80;5.00;;;;;;;11.41;52.52;97236.59;5091851;28;20440;-69
2021/11/08 11:58:53;;;;;;;15.53;5.10;;;;;;;12.53;51.02;97227.72;5090386;28;20466;-70
2021/11/08 12:01:22;;;;;;;15.70;5.10;;;;;;;12.85;49.77;97223.44;5091412;28;20918;-70
2021/11/08 12:03:48;;;;;;;12.47;5.37;;;;;;;13.78;48.30;97215.94;5089684;28;20413;-69
2021/11/08 12:06:22;;;;;;;11.50;5.07;;;;;;;13.23;48.55;97218.44;5076232;28;20423;-71
2021/11/08 12:08:52;;;;;;;11.03;5.10;;;;;;;13.93;47.89;97213.38;5082713;28;20443;-70
2021/11/08 12:11:30;;;;;;;15.13;6.80;;;;;;;14.16;48.21;97215.22;5083127;28;20425;-69
2021/11/08 12:14:01;;;;;;;19.67;6.97;;;;;;;14.13;47.73;97213.75;5085978;28;20426;-73
2021/11/08 12:16:28;;;;;;;24.60;7.07;;;;;;;14.42;46.97;97204.34;5080158;28;20441;-73
2021/11/08 12:18:57;;;;;;;16.00;5.90;;;;;;;14.47;46.53;97204.63;5085526;28;20456;-70
2021/11/08 12:21:35;;;;;;;14.70;5.50;;;;;;;14.10;46.76;97203.59;5085536;28;20770;-70
2021/11/08 12:24:17;;;;;;;18.77;5.73;;;;;;;14.41;48.09;97207.97;5087430;28;20428;-69
2021/11/08 12:26:43;;;;;;;14.40;5.30;;;;;;;14.42;46.68;97196.41;5092297;28;20427;-69
2021/11/08 12:29:13;;;;;;;17.87;6.13;;;;;;;13.55;48.61;97195.63;5073788;28;20496;-68
2021/11/08 12:31:39;;;;;;;11.60;5.77;;;;;;;14.66;45.83;97198.03;5090712;28;20178;-71
2021/11/08 12:34:13;;;;;;;13.60;5.73;;;;;;;14.54;46.81;97194.19;5092215;28;20902;-70
2021/11/08 12:36:40;;;;;;;9.87;4.73;;;;;;;14.40;45.59;97199.25;5075379;28;20478;-70
2021/11/08 12:39:12;;;;;;;16.67;5.20;;;;;;;15.30;44.19;97199.41;5088090;28;20466;-71
2021/11/08 12:41:48;;;;;;;9.87;5.27;;;;;;;15.73;43.41;97200.53;5067064;28;20762;-70
2021/11/08 12:44:31;;;;;;;16.83;5.03;;;;;;;15.75;42.96;97194.06;5075109;28;20897;-70
2021/11/08 12:46:58;;;;;;;21.27;5.23;;;;;;;15.60;43.08;97193.28;5091545;28;20784;-72
2021/11/08 12:49:29;;;;;;;21.57;5.47;;;;;;;14.99;43.61;97199.59;5091702;28;20534;-71
2021/11/08 12:52:06;;;;;;;15.40;4.67;;;;;;;15.71;42.90;97192.81;5078265;28;20429;-71
2021/11/08 12:54:48;;;;;;;17.03;4.47;;;;;;;15.99;41.18;97192.13;5091566;28;21033;-70
2021/11/08 12:57:15;;;;;;;9.07;3.37;;;;;;;15.76;41.30;97189.59;5058895;28;20519;-71
2021/11/08 12:59:48;;;;;;;13.47;4.47;;;;;;;16.50;39.74;97185.09;5091360;28;20548;-70
2021/11/08 13:02:23;;;;;;;16.73;4.83;;;;;;;16.26;40.35;97187.09;5066537;28;20412;-69
2021/11/08 13:04:57;;;;;;;14.70;3.97;;;;;;;16.34;40.14;97181.69;5083504;28;20502;-74
2021/11/08 13:07:24;;;;;;;7.33;3.17;;;;;;;15.88;40.01;97184.72;5085498;28;20841;-72
2021/11/08 13:09:53;;;;;;;14.93;3.57;;;;;;;14.96;41.76;97189.38;5085539;28;20423;-71
2021/11/08 13:12:22;;;;;;;18.30;4.70;;;;;;;13.52;44.64;97188.06;5090145;28;20836;-71
2021/11/08 13:15:01;;;;;;;12.40;4.27;;;;;;;13.83;45.05;97192.53;5091583;28;20511;-70
2021/11/08 13:17:29;;;;;;;15.60;4.20;;;;;;;14.26;43.56;97186.81;5077131;28;20930;-71
2021/11/08 13:20:06;;;;;;;8.87;3.87;;;;;;;14.10;44.13;97188.56;5091014;28;20468;-73
2021/11/08 13:22:37;;;;;;;16.27;3.67;;;;;;;13.76;44.54;97192.41;5078081;28;20416;-70
2021/11/08 13:25:05;;;;;;;10.20;4.07;;;;;;;14.55;43.23;97195.84;5074492;28;20893;-73